Time;durP1;ratioP1;P1;durP2;ratioP2;P2;SDS_P1;SDS_P2;PMS_P1;PMS_P2;Temp;Humidity;BMP_temperature;BMP_pressure;BME280_temperature;BME280_humidity;BME280_pressure;Samples;Min_cycle;Max_cycle;Signal;HPM_P1;HPM_P2
2023/05/09 00:01:35;;;;;;;17.75;12.68;;;;;;;;;;5049315;28;20033;-77
2023/05/09 00:04:01;;;;;;;14.35;12.45;;;;;;;;;;5049529;28;20281;-78
2023/05/09 00:06:28;;;;;;;21.40;13.88;;;;;;;;;;5049261;28;20537;-76
2023/05/09 00:08:54;;;;;;;13.55;12.18;;;;;;;;;;5049178;28;20449;-77
2023/05/09 00:11:23;;;;;;;14.82;11.88;;;;;;;;;;5044936;28;20560;-78
2023/05/09 00:13:49;;;;;;;16.38;13.25;;;;;;;;;;5046949;28;20029;-76
2023/05/09 00:16:16;;;;;;;14.40;12.73;;;;;;;;;;5045756;28;20033;-77
2023/05/09 00:18:42;;;;;;;16.55;13.70;;;;;;;;;;5047120;28;20041;-78
2023/05/09 00:21:09;;;;;;;17.75;14.98;;;;;;;;;;5051079;28;20049;-77
2023/05/09 00:23:36;;;;;;;21.02;15.57;;;;;;;;;;5049697;28;20021;-77
2023/05/09 00:26:01;;;;;;;18.27;14.77;;;;;;;;;;5049517;28;20029;-78
2023/05/09 00:28:27;;;;;;;16.98;13.48;;;;;;;;;;5049711;28;20025;-78
2023/05/09 00:30:53;;;;;;;17.20;14.23;;;;;;;;;;5044846;28;20029;-78
2023/05/09 00:33:20;;;;;;;16.52;13.65;;;;;;;;;;5045923;28;20025;-78
2023/05/09 00:35:46;;;;;;;16.23;13.75;;;;;;;;;;5045215;28;20063;-78
2023/05/09 00:38:13;;;;;;;19.98;13.27;;;;;;;;;;5047237;28;20063;-78
2023/05/09 00:40:39;;;;;;;18.33;14.40;;;;;;;;;;5050045;28;20476;-77
2023/05/09 00:43:06;;;;;;;17.35;14.82;;;;;;;;;;5047227;28;20056;-77
2023/05/09 00:45:32;;;;;;;18.20;14.32;;;;;;;;;;5045494;28;20025;-77
2023/05/09 00:47:58;;;;;;;15.93;13.65;;;;;;;;;;5047065;28;20257;-77
2023/05/09 00:50:24;;;;;;;20.30;17.70;;;;;;;;;;5042391;28;20061;-77
2023/05/09 00:52:50;;;;;;;16.08;12.98;;;;;;;;;;5045866;28;20067;-78
2023/05/09 00:55:17;;;;;;;20.45;13.93;;;;;;;;;;5046422;28;20601;-77
2023/05/09 00:57:43;;;;;;;17.20;14.48;;;;;;;;;;5044224;28;20048;-76
2023/05/09 01:00:11;;;;;;;16.65;14.18;;;;;;;;;;5045689;28;20037;-77
2023/05/09 01:02:38;;;;;;;18.08;14.20;;;;;;;;;;5047134;28;20021;-77
2023/05/09 01:05:05;;;;;;;19.77;14.68;;;;;;;;;;5046133;28;20083;-76
2023/05/09 01:07:50;;;;;;;17.27;13.70;;;;;;;;;;5046318;28;20025;-76
2023/05/09 01:10:16;;;;;;;20.02;14.73;;;;;;;;;;5046289;28;20105;-76
2023/05/09 01:12:45;;;;;;;21.08;14.57;;;;;;;;;;5050418;28;20065;-77
2023/05/09 01:15:20;;;;;;;15.57;13.95;;;;;;;;;;5045622;28;20029;-77
2023/05/09 01:17:46;;;;;;;21.42;15.93;;;;;;;;;;5043984;28;20071;-76
2023/05/09 01:20:15;;;;;;;16.92;14.65;;;;;;;;;;5038926;28;20037;-77
2023/05/09 01:22:46;;;;;;;17.00;14.82;;;;;;;;;;5045528;28;20033;-79
2023/05/09 01:25:20;;;;;;;19.17;14.70;;;;;;;;;;5042618;28;20052;-77
2023/05/09 01:28:06;;;;;;;25.00;14.85;;;;;;;;;;5045321;28;20928;-77
2023/05/09 01:30:34;;;;;;;19.42;15.43;;;;;;;;;;5045941;28;20041;-77
2023/05/09 01:33:02;;;;;;;18.27;15.02;;;;;;;;;;5046884;28;20171;-78
2023/05/09 01:35:30;;;;;;;18.60;14.75;;;;;;;;;;5042534;28;20034;-77
2023/05/09 01:37:56;;;;;;;16.83;15.07;;;;;;;;;;5046137;28;20051;-77
2023/05/09 01:40:23;;;;;;;17.02;14.85;;;;;;;;;;5047390;28;20065;-78
2023/05/09 01:42:49;;;;;;;16.73;13.90;;;;;;;;;;5051222;28;20049;-77
2023/05/09 01:45:15;;;;;;;25.58;15.70;;;;;;;;;;5049829;28;20025;-78
2023/05/09 01:47:42;;;;;;;19.63;15.38;;;;;;;;;;5050175;28;20025;-78
2023/05/09 01:50:10;;;;;;;20.67;15.85;;;;;;;;;;5051181;28;20021;-77
2023/05/09 01:52:37;;;;;;;18.02;15.05;;;;;;;;;;5046966;28;20089;-78
2023/05/09 01:55:04;;;;;;;16.38;14.02;;;;;;;;;;5049429;28;20033;-77
2023/05/09 01:57:30;;;;;;;21.85;16.20;;;;;;;;;;5037639;28;20072;-77
2023/05/09 01:59:57;;;;;;;25.42;15.90;;;;;;;;;;5050944;28;21453;-77
2023/05/09 02:02:25;;;;;;;18.50;15.07;;;;;;;;;;5050157;28;20036;-77
2023/05/09 02:04:52;;;;;;;19.40;15.90;;;;;;;;;;5048410;28;20075;-78
2023/05/09 02:07:19;;;;;;;19.90;15.45;;;;;;;;;;5048581;28;20040;-77
2023/05/09 02:09:45;;;;;;;20.33;16.70;;;;;;;;;;5047749;28;20449;-77
2023/05/09 02:12:11;;;;;;;23.17;16.45;;;;;;;;;;5052141;28;20044;-77
2023/05/09 02:14:37;;;;;;;22.13;16.75;;;;;;;;;;5036393;28;20033;-78
2023/05/09 02:17:05;;;;;;;19.45;15.23;;;;;;;;;;5045497;28;20473;-78
2023/05/09 02:19:33;;;;;;;22.15;16.77;;;;;;;;;;5047542;28;20032;-77
2023/05/09 02:21:59;;;;;;;21.30;16.60;;;;;;;;;;5048334;28;20024;-77
2023/05/09 02:24:25;;;;;;;20.73;16.95;;;;;;;;;;5052669;28;20036;-77
2023/05/09 02:26:51;;;;;;;22.88;17.88;;;;;;;;;;5050199;28;20036;-77
2023/05/09 02:29:19;;;;;;;23.17;18.88;;;;;;;;;;5049705;28;20093;-78
2023/05/09 02:31:46;;;;;;;27.80;18.08;;;;;;;;;;5050634;28;20025;-78
2023/05/09 02:34:13;;;;;;;25.83;18.80;;;;;;;;;;5050464;28;20029;-77
2023/05/09 02:36:39;;;;;;;20.33;18.05;;;;;;;;;;5049330;28;20033;-78
2023/05/09 02:39:06;;;;;;;21.55;18.42;;;;;;;;;;5037408;28;20114;-77
2023/05/09 02:41:32;;;;;;;20.98;18.73;;;;;;;;;;5039398;28;20034;-77
2023/05/09 02:43:58;;;;;;;24.27;19.02;;;;;;;;;;5050768;28;20099;-78
2023/05/09 02:46:24;;;;;;;27.33;19.92;;;;;;;;;;5050833;28;20029;-78
2023/05/09 02:48:50;;;;;;;24.08;19.55;;;;;;;;;;5049098;28;20025;-77
2023/05/09 02:51:16;;;;;;;24.70;19.15;;;;;;;;;;5050185;28;20106;-78
2023/05/09 02:53:42;;;;;;;25.33;20.23;;;;;;;;;;5049362;28;20549;-78
2023/05/09 02:56:09;;;;;;;23.90;20.65;;;;;;;;;;5048588;28;20473;-78
2023/05/09 02:58:35;;;;;;;24.40;19.65;;;;;;;;;;5051716;28;20063;-77
2023/05/09 03:01:01;;;;;;;24.58;20.58;;;;;;;;;;5049525;28;21704;-77
2023/05/09 03:03:27;;;;;;;22.70;19.58;;;;;;;;;;5049573;28;20052;-77
2023/05/09 03:05:53;;;;;;;24.55;20.70;;;;;;;;;;5048620;28;20025;-77
2023/05/09 03:08:19;;;;;;;27.05;21.35;;;;;;;;;;5049610;28;20028;-77
2023/05/09 03:10:46;;;;;;;22.98;20.23;;;;;;;;;;5047094;28;20110;-77
2023/05/09 03:13:12;;;;;;;24.65;19.60;;;;;;;;;;5050828;28;20029;-77
2023/05/09 03:15:38;;;;;;;22.95;20.45;;;;;;;;;;5051613;28;20049;-78
2023/05/09 03:18:04;;;;;;;26.25;21.02;;;;;;;;;;5052560;28;20083;-77
2023/05/09 03:20:30;;;;;;;28.58;20.45;;;;;;;;;;5046189;28;20058;-77
2023/05/09 03:22:56;;;;;;;24.95;21.30;;;;;;;;;;5056457;28;20224;-77
2023/05/09 03:25:22;;;;;;;28.38;20.70;;;;;;;;;;5041745;28;20036;-77
2023/05/09 03:27:48;;;;;;;29.42;22.02;;;;;;;;;;5054805;28;20029;-78
2023/05/09 03:30:14;;;;;;;26.50;20.83;;;;;;;;;;5050281;28;20134;-77
2023/05/09 03:32:40;;;;;;;27.27;22.30;;;;;;;;;;5054359;28;20454;-76
2023/05/09 03:35:07;;;;;;;27.33;22.52;;;;;;;;;;5041325;28;20056;-77
2023/05/09 03:37:33;;;;;;;29.60;21.75;;;;;;;;;;5055613;28;20029;-78
2023/05/09 03:39:59;;;;;;;26.65;23.20;;;;;;;;;;5051040;28;20067;-76
2023/05/09 03:42:25;;;;;;;29.35;23.05;;;;;;;;;;5049405;28;20032;-78
2023/05/09 03:44:51;;;;;;;28.88;22.63;;;;;;;;;;5055111;28;20540;-77
2023/05/09 03:47:17;;;;;;;25.30;21.50;;;;;;;;;;5053953;28;20024;-77
2023/05/09 03:49:43;;;;;;;29.63;22.08;;;;;;;;;;5039977;28;20060;-77
2023/05/09 03:52:09;;;;;;;32.50;23.88;;;;;;;;;;5052457;28;20029;-77
2023/05/09 03:54:35;;;;;;;31.75;22.85;;;;;;;;;;5052831;28;20032;-77
2023/05/09 03:57:02;;;;;;;28.10;20.92;;;;;;;;;;5052024;28;20045;-77
2023/05/09 03:59:28;;;;;;;28.25;22.40;;;;;;;;;;5050676;28;20096;-78
2023/05/09 04:01:54;;;;;;;29.98;22.60;;;;;;;;;;5050233;28;20044;-77
2023/05/09 04:04:20;;;;;;;25.55;22.77;;;;;;;;;;5052038;28;20026;-77
2023/05/09 04:06:46;;;;;;;29.58;23.15;;;;;;;;;;5054897;28;20024;-77
2023/05/09 04:09:12;;;;;;;31.30;24.33;;;;;;;;;;5054979;28;20025;-77
2023/05/09 04:11:38;;;;;;;29.23;23.77;;;;;;;;;;5054082;28;20029;-78
2023/05/09 04:14:05;;;;;;;29.63;23.80;;;;;;;;;;5050384;28;20105;-77
2023/05/09 04:16:32;;;;;;;32.20;24.08;;;;;;;;;;5054046;28;20044;-76
2023/05/09 04:18:58;;;;;;;32.20;25.00;;;;;;;;;;5053728;28;20481;-77
2023/05/09 04:21:24;;;;;;;30.50;24.20;;;;;;;;;;5053907;28;20067;-78
2023/05/09 04:23:50;;;;;;;31.67;24.13;;;;;;;;;;5054337;28;20030;-77
2023/05/09 04:26:17;;;;;;;32.53;24.23;;;;;;;;;;5056859;28;20075;-78
2023/05/09 04:28:43;;;;;;;31.63;23.90;;;;;;;;;;5040926;28;20026;-76
2023/05/09 04:31:11;;;;;;;31.38;25.33;;;;;;;;;;5057230;28;20089;-78
2023/05/09 04:33:37;;;;;;;33.28;25.10;;;;;;;;;;5054905;28;20904;-77
2023/05/09 04:36:04;;;;;;;32.17;25.98;;;;;;;;;;5060527;28;20041;-77
2023/05/09 04:38:30;;;;;;;30.10;25.10;;;;;;;;;;5059047;28;20068;-77
2023/05/09 04:40:57;;;;;;;32.03;25.85;;;;;;;;;;5058704;28;20037;-78
2023/05/09 04:43:26;;;;;;;34.80;25.90;;;;;;;;;;5061069;28;20056;-77
2023/05/09 04:45:52;;;;;;;43.65;27.25;;;;;;;;;;5058293;28;20037;-77
2023/05/09 04:48:18;;;;;;;31.25;25.25;;;;;;;;;;5058611;28;20029;-76
2023/05/09 04:50:47;;;;;;;31.48;25.38;;;;;;;;;;5059442;28;20125;-78
2023/05/09 04:53:13;;;;;;;30.30;26.83;;;;;;;;;;5058321;28;20929;-77
2023/05/09 04:55:39;;;;;;;36.15;26.58;;;;;;;;;;5061467;28;20109;-78
2023/05/09 04:58:05;;;;;;;32.10;25.73;;;;;;;;;;5060411;28;20044;-79
2023/05/09 05:00:31;;;;;;;33.55;26.35;;;;;;;;;;5061395;28;20017;-77
2023/05/09 05:02:57;;;;;;;31.88;25.08;;;;;;;;;;5058855;28;20045;-78
2023/05/09 05:05:23;;;;;;;28.35;24.73;;;;;;;;;;5054256;28;20040;-79
2023/05/09 05:07:49;;;;;;;30.85;23.85;;;;;;;;;;5055035;28;20029;-76
2023/05/09 05:10:15;;;;;;;34.40;24.00;;;;;;;;;;5051645;28;20031;-77
2023/05/09 05:12:41;;;;;;;26.42;22.35;;;;;;;;;;5055730;28;20037;-78
2023/05/09 05:15:07;;;;;;;26.70;22.90;;;;;;;;;;5050444;28;20042;-77
2023/05/09 05:17:33;;;;;;;28.33;22.55;;;;;;;;;;5053190;28;20033;-77
2023/05/09 05:19:59;;;;;;;37.13;24.10;;;;;;;;;;5053134;28;20457;-78
2023/05/09 05:22:25;;;;;;;27.55;22.05;;;;;;;;;;5055423;28;20025;-77
2023/05/09 05:24:51;;;;;;;31.42;22.83;;;;;;;;;;5057545;28;20030;-78
2023/05/09 05:27:17;;;;;;;26.38;20.95;;;;;;;;;;5051779;28;20033;-77
2023/05/09 05:29:43;;;;;;;26.05;21.45;;;;;;;;;;5052737;28;21717;-78
2023/05/09 05:32:09;;;;;;;25.42;22.67;;;;;;;;;;5050975;28;20033;-77
2023/05/09 05:34:35;;;;;;;28.65;22.88;;;;;;;;;;5048954;28;20033;-77
2023/05/09 05:37:01;;;;;;;29.67;23.17;;;;;;;;;;5049867;28;20029;-78
2023/05/09 05:39:27;;;;;;;34.05;23.50;;;;;;;;;;5048560;28;20397;-78
2023/05/09 05:41:53;;;;;;;27.67;22.17;;;;;;;;;;5052757;28;20125;-77
2023/05/09 05:44:19;;;;;;;29.58;23.10;;;;;;;;;;5052224;28;20037;-77
2023/05/09 05:46:46;;;;;;;31.55;21.58;;;;;;;;;;5050216;28;20430;-77
2023/05/09 05:49:12;;;;;;;26.48;21.17;;;;;;;;;;5051340;28;20087;-77
2023/05/09 05:51:37;;;;;;;31.52;22.55;;;;;;;;;;5049732;28;20433;-77
2023/05/09 05:54:04;;;;;;;25.83;20.80;;;;;;;;;;5050252;28;20025;-77
2023/05/09 05:56:30;;;;;;;29.08;22.23;;;;;;;;;;5047470;28;20029;-77
2023/05/09 05:58:56;;;;;;;26.85;20.40;;;;;;;;;;5049856;28;20238;-77
2023/05/09 06:01:22;;;;;;;28.92;20.45;;;;;;;;;;5045658;28;20029;-77
2023/05/09 06:03:53;;;;;;;28.90;21.05;;;;;;;;;;5046156;28;20032;-77
2023/05/09 06:06:20;;;;;;;28.15;21.45;;;;;;;;;;5047198;28;20059;-77
2023/05/09 06:08:48;;;;;;;27.85;20.63;;;;;;;;;;5045714;28;20118;-77
2023/05/09 06:11:15;;;;;;;29.60;21.30;;;;;;;;;;5047812;28;20446;-77
2023/05/09 06:13:41;;;;;;;25.40;19.85;;;;;;;;;;5051068;28;20036;-78
2023/05/09 06:16:07;;;;;;;27.48;19.38;;;;;;;;;;5047524;28;20051;-77
2023/05/09 06:18:34;;;;;;;22.25;18.92;;;;;;;;;;5049930;28;20040;-78
2023/05/09 06:21:00;;;;;;;26.92;19.98;;;;;;;;;;5046072;28;20063;-78
2023/05/09 06:23:26;;;;;;;21.40;19.17;;;;;;;;;;5045108;28;20025;-79
2023/05/09 06:25:52;;;;;;;22.70;19.35;;;;;;;;;;5045837;28;20086;-78
2023/05/09 06:28:18;;;;;;;26.50;19.17;;;;;;;;;;5046545;28;20032;-78
2023/05/09 06:30:44;;;;;;;25.85;19.77;;;;;;;;;;5046694;28;20128;-79
2023/05/09 06:33:10;;;;;;;30.83;20.00;;;;;;;;;;5051316;28;20072;-78
2023/05/09 06:35:36;;;;;;;26.02;20.50;;;;;;;;;;5047523;28;20450;-78
2023/05/09 06:38:02;;;;;;;22.40;18.15;;;;;;;;;;5047217;28;20025;-78
2023/05/09 06:40:28;;;;;;;22.88;18.10;;;;;;;;;;5035399;28;20125;-78
2023/05/09 06:42:54;;;;;;;23.23;17.17;;;;;;;;;;5046285;28;20029;-77
2023/05/09 06:45:20;;;;;;;22.27;16.77;;;;;;;;;;5044754;28;20036;-78
2023/05/09 06:47:49;;;;;;;23.88;16.90;;;;;;;;;;5047845;28;20116;-78
2023/05/09 06:50:15;;;;;;;18.73;15.13;;;;;;;;;;5049603;28;20025;-78
2023/05/09 06:52:41;;;;;;;18.25;14.40;;;;;;;;;;5048407;28;20102;-78
2023/05/09 06:55:08;;;;;;;19.13;13.40;;;;;;;;;;5049636;28;20025;-78
2023/05/09 06:57:34;;;;;;;15.13;10.52;;;;;;;;;;5055936;28;20026;-77
2023/05/09 07:00:00;;;;;;;11.40;9.70;;;;;;;;;;5056400;28;20037;-78
2023/05/09 07:02:26;;;;;;;12.10;9.82;;;;;;;;;;5056150;28;20095;-77
2023/05/09 07:04:52;;;;;;;15.70;9.18;;;;;;;;;;5054007;28;20029;-78
2023/05/09 07:07:18;;;;;;;12.65;9.68;;;;;;;;;;5054748;28;20053;-80
2023/05/09 07:09:44;;;;;;;10.80;8.75;;;;;;;;;;5053227;28;20082;-78
2023/05/09 07:12:10;;;;;;;11.27;7.47;;;;;;;;;;5037745;28;20033;-79
2023/05/09 07:14:40;;;;;;;9.73;7.82;;;;;;;;;;5050998;28;20021;-78
2023/05/09 07:17:07;;;;;;;10.40;8.10;;;;;;;;;;5039200;28;20021;-78
2023/05/09 07:19:33;;;;;;;10.13;8.30;;;;;;;;;;5047046;28;20055;-79
2023/05/09 07:21:59;;;;;;;9.68;7.80;;;;;;;;;;5044276;28;20021;-78
2023/05/09 07:24:25;;;;;;;9.43;7.68;;;;;;;;;;5049003;28;20140;-78
2023/05/09 07:26:51;;;;;;;10.18;7.72;;;;;;;;;;5049547;28;20091;-79
2023/05/09 07:29:19;;;;;;;8.68;6.78;;;;;;;;;;5049098;28;20017;-80
2023/05/09 07:31:45;;;;;;;8.65;6.65;;;;;;;;;;5049495;28;20032;-80
2023/05/09 07:34:11;;;;;;;8.13;4.80;;;;;;;;;;5050553;28;20029;-78
2023/05/09 07:36:37;;;;;;;7.20;4.28;;;;;;;;;;5054326;28;20934;-78
2023/05/09 07:39:03;;;;;;;6.40;4.63;;;;;;;;;;5050833;28;20079;-80
2023/05/09 07:41:30;;;;;;;6.38;4.80;;;;;;;;;;5049407;28;20033;-81
2023/05/09 07:43:56;;;;;;;5.55;4.10;;;;;;;;;;5049719;28;20040;-80
2023/05/09 07:46:22;;;;;;;5.65;4.30;;;;;;;;;;5047255;28;20025;-79
2023/05/09 07:48:48;;;;;;;5.32;4.63;;;;;;;;;;5049355;28;20033;-77
2023/05/09 07:51:14;;;;;;;5.47;4.15;;;;;;;;;;5054004;28;20060;-80
2023/05/09 07:53:40;;;;;;;9.23;5.63;;;;;;;;;;5053732;28;20101;-78
2023/05/09 07:56:06;;;;;;;8.05;5.13;;;;;;;;;;5054727;28;20033;-79
2023/05/09 07:58:32;;;;;;;8.60;4.50;;;;;;;;;;5050113;28;20010;-77
2023/05/09 08:00:58;;;;;;;9.18;4.40;;;;;;;;;;5055310;28;20210;-78
2023/05/09 08:03:24;;;;;;;5.20;3.90;;;;;;;;;;5054728;28;20033;-78
2023/05/09 08:05:55;;;;;;;10.20;4.53;;;;;;;;;;5056307;28;20344;-78
2023/05/09 08:08:21;;;;;;;5.15;3.88;;;;;;;;;;5055843;28;20468;-78
2023/05/09 08:10:47;;;;;;;6.13;4.13;;;;;;;;;;5057167;28;20025;-77
2023/05/09 08:13:13;;;;;;;15.38;6.13;;;;;;;;;;5054233;28;20041;-79
2023/05/09 08:15:39;;;;;;;7.65;4.25;;;;;;;;;;5053423;28;20074;-79
2023/05/09 08:18:05;;;;;;;4.05;2.92;;;;;;;;;;5054836;28;20025;-78
2023/05/09 08:20:33;;;;;;;6.55;3.55;;;;;;;;;;5051532;28;20055;-78
2023/05/09 08:22:59;;;;;;;5.68;2.72;;;;;;;;;;5056744;28;20097;-78
2023/05/09 08:25:25;;;;;;;5.75;3.00;;;;;;;;;;5052415;28;20041;-78
2023/05/09 08:27:51;;;;;;;5.90;2.35;;;;;;;;;;5052133;28;20470;-80
2023/05/09 08:30:17;;;;;;;3.00;2.70;;;;;;;;;;5051285;28;20033;-80
2023/05/09 08:32:43;;;;;;;5.38;2.60;;;;;;;;;;5052565;28;20037;-80
2023/05/09 08:35:09;;;;;;;5.03;2.47;;;;;;;;;;5044927;28;20041;-81
2023/05/09 08:37:35;;;;;;;4.90;2.53;;;;;;;;;;5044705;28;20066;-81
2023/05/09 08:40:03;;;;;;;5.70;2.60;;;;;;;;;;5054334;28;20033;-80
2023/05/09 08:42:30;;;;;;;3.15;2.28;;;;;;;;;;5051985;28;20054;-80
2023/05/09 08:44:56;;;;;;;2.80;1.67;;;;;;;;;;5049205;28;20025;-82
2023/05/09 08:47:22;;;;;;;4.47;2.20;;;;;;;;;;5050055;28;20029;-80
2023/05/09 08:49:49;;;;;;;7.55;2.13;;;;;;;;;;5049866;28;20029;-80
2023/05/09 08:52:15;;;;;;;5.10;2.42;;;;;;;;;;5050423;28;20025;-82
2023/05/09 08:54:42;;;;;;;5.20;2.20;;;;;;;;;;5049489;28;20025;-83
2023/05/09 08:57:08;;;;;;;3.33;2.22;;;;;;;;;;5048562;28;20037;-81
2023/05/09 08:59:36;;;;;;;2.17;1.88;;;;;;;;;;5050809;28;20021;-81
2023/05/09 09:02:06;;;;;;;5.47;2.25;;;;;;;;;;5051177;28;20048;-83
2023/05/09 09:04:32;;;;;;;3.72;1.83;;;;;;;;;;5047550;28;20036;-81
2023/05/09 09:06:58;;;;;;;3.10;1.60;;;;;;;;;;5044807;28;20025;-80
2023/05/09 09:09:24;;;;;;;2.20;1.65;;;;;;;;;;5034993;28;20029;-79
2023/05/09 09:11:52;;;;;;;3.80;1.80;;;;;;;;;;5052344;28;20539;-80
2023/05/09 09:14:24;;;;;;;3.47;1.90;;;;;;;;;;5046679;28;20033;-81
2023/05/09 09:16:52;;;;;;;2.45;1.60;;;;;;;;;;5049123;28;21716;-83
2023/05/09 09:19:19;;;;;;;3.13;2.15;;;;;;;;;;5044886;28;20033;-83
2023/05/09 09:21:46;;;;;;;5.75;1.77;;;;;;;;;;5044490;28;20029;-82
2023/05/09 09:24:12;;;;;;;2.83;1.83;;;;;;;;;;5044626;28;20036;-81
2023/05/09 09:26:47;;;;;;;5.38;2.25;;;;;;;;;;5049539;28;20021;-81
2023/05/09 09:29:13;;;;;;;4.05;2.00;;;;;;;;;;5040501;28;20053;-83
2023/05/09 09:31:45;;;;;;;3.45;2.05;;;;;;;;;;5050088;28;20041;-83
2023/05/09 09:34:13;;;;;;;4.13;1.50;;;;;;;;;;5031088;28;20504;-84
2023/05/09 09:36:39;;;;;;;3.47;1.95;;;;;;;;;;5039483;28;20107;-83
2023/05/09 09:39:05;;;;;;;3.95;1.90;;;;;;;;;;5043349;28;20028;-83
2023/05/09 09:41:31;;;;;;;2.83;1.85;;;;;;;;;;5039372;28;20029;-81
2023/05/09 09:43:57;;;;;;;3.72;1.60;;;;;;;;;;5044689;28;20022;-83
2023/05/09 09:46:26;;;;;;;4.00;2.03;;;;;;;;;;5040598;28;20033;-83
2023/05/09 09:48:55;;;;;;;2.67;1.67;;;;;;;;;;5040587;28;20593;-82
2023/05/09 09:51:21;;;;;;;2.60;1.95;;;;;;;;;;5037515;28;20025;-83
2023/05/09 09:53:47;;;;;;;6.82;2.60;;;;;;;;;;5043217;28;20037;-80
2023/05/09 09:56:13;;;;;;;3.50;2.00;;;;;;;;;;5042540;28;20044;-82
2023/05/09 09:58:39;;;;;;;6.53;1.75;;;;;;;;;;5045171;28;20072;-82
2023/05/09 10:01:15;;;;;;;4.72;1.90;;;;;;;;;;5028214;28;20021;-82
2023/05/09 10:03:42;;;;;;;4.70;1.73;;;;;;;;;;5044422;28;20056;-82
2023/05/09 10:06:12;;;;;;;2.05;1.60;;;;;;;;;;5042443;28;20021;-82
2023/05/09 10:08:38;;;;;;;6.00;2.03;;;;;;;;;;5045898;28;20029;-82
2023/05/09 10:11:04;;;;;;;3.58;1.98;;;;;;;;;;5043918;28;20029;-83
2023/05/09 10:13:31;;;;;;;3.17;2.00;;;;;;;;;;5044218;28;20449;-84
2023/05/09 10:15:57;;;;;;;6.03;1.42;;;;;;;;;;5042391;28;20090;-86
2023/05/09 10:18:27;;;;;;;2.88;1.80;;;;;;;;;;5045452;28;20029;-84
2023/05/09 10:20:55;;;;;;;6.07;2.00;;;;;;;;;;5044379;28;20060;-86
2023/05/09 10:23:22;;;;;;;2.53;2.03;;;;;;;;;;5045087;28;20053;-80
2023/05/09 10:25:52;;;;;;;3.58;2.05;;;;;;;;;;5041575;28;20098;-83
2023/05/09 10:28:25;;;;;;;3.97;2.10;;;;;;;;;;5043971;28;20101;-81
2023/05/09 10:31:00;;;;;;;5.53;2.60;;;;;;;;;;5041499;28;20080;-84
2023/05/09 10:33:30;;;;;;;7.90;1.98;;;;;;;;;;5033852;28;21339;-82
2023/05/09 10:35:58;;;;;;;3.83;2.10;;;;;;;;;;5042848;28;20071;-82
2023/05/09 10:38:24;;;;;;;5.18;2.00;;;;;;;;;;5043634;28;20049;-83
2023/05/09 10:40:52;;;;;;;7.05;2.45;;;;;;;;;;5044427;28;20099;-80
2023/05/09 10:43:22;;;;;;;2.08;1.80;;;;;;;;;;5041933;28;20033;-79
2023/05/09 10:45:51;;;;;;;4.15;2.38;;;;;;;;;;5043497;28;20028;-80
2023/05/09 10:48:18;;;;;;;3.67;1.67;;;;;;;;;;5043490;28;20029;-79
2023/05/09 10:50:45;;;;;;;2.58;1.60;;;;;;;;;;5039575;28;20846;-80
2023/05/09 10:53:13;;;;;;;3.33;1.90;;;;;;;;;;5042570;28;20052;-81
2023/05/09 10:55:49;;;;;;;5.75;1.77;;;;;;;;;;5043895;28;20033;-81
2023/05/09 10:58:28;;;;;;;2.72;1.95;;;;;;;;;;5041444;28;20031;-80
2023/05/09 11:00:55;;;;;;;3.55;1.80;;;;;;;;;;5038608;28;20118;-81
2023/05/09 11:03:23;;;;;;;5.95;1.80;;;;;;;;;;5040889;28;20025;-80
2023/05/09 11:05:50;;;;;;;4.05;2.15;;;;;;;;;;5041380;28;20024;-80
2023/05/09 11:08:20;;;;;;;3.55;2.00;;;;;;;;;;5041853;28;20027;-81
2023/05/09 11:10:46;;;;;;;4.28;1.98;;;;;;;;;;5041598;28;20059;-80
2023/05/09 11:13:13;;;;;;;7.50;1.80;;;;;;;;;;5041930;28;20103;-81
2023/05/09 11:16:02;;;;;;;6.70;2.08;;;;;;;;;;5043951;28;20035;-80
2023/05/09 11:18:28;;;;;;;4.57;1.80;;;;;;;;;;5023953;28;20047;-80
2023/05/09 11:20:55;;;;;;;4.28;1.70;;;;;;;;;;5042158;28;20074;-80
2023/05/09 11:23:24;;;;;;;4.72;1.92;;;;;;;;;;5044970;28;20032;-80
2023/05/09 11:25:51;;;;;;;5.60;2.20;;;;;;;;;;5043643;28;20034;-80
2023/05/09 11:28:27;;;;;;;6.35;1.85;;;;;;;;;;5042501;28;20025;-80
2023/05/09 11:30:53;;;;;;;2.95;2.00;;;;;;;;;;5042851;28;20076;-80
2023/05/09 11:33:23;;;;;;;2.10;1.60;;;;;;;;;;5042244;28;20051;-81
2023/05/09 11:36:13;;;;;;;2.92;1.48;;;;;;;;;;5040344;28;20044;-80
2023/05/09 11:38:42;;;;;;;3.85;1.50;;;;;;;;;;5025475;28;20037;-80
2023/05/09 11:41:08;;;;;;;4.30;1.63;;;;;;;;;;5039976;28;20156;-80
2023/05/09 11:43:36;;;;;;;5.20;1.63;;;;;;;;;;5026484;28;20032;-80
2023/05/09 11:46:02;;;;;;;3.00;1.50;;;;;;;;;;5042500;28;20025;-82
2023/05/09 11:48:28;;;;;;;2.00;1.50;;;;;;;;;;5041947;28;20378;-81
2023/05/09 11:50:54;;;;;;;2.78;1.50;;;;;;;;;;5028346;28;20021;-81
2023/05/09 11:53:20;;;;;;;3.10;1.25;;;;;;;;;;5039247;28;20127;-80
2023/05/09 11:55:46;;;;;;;2.75;1.30;;;;;;;;;;5040866;28;20026;-80
2023/05/09 11:58:12;;;;;;;2.95;1.40;;;;;;;;;;5042165;28;20047;-81
2023/05/09 12:00:45;;;;;;;4.00;1.42;;;;;;;;;;5038942;28;20525;-81
2023/05/09 12:03:12;;;;;;;7.90;1.63;;;;;;;;;;5039891;28;20033;-81
2023/05/09 12:05:38;;;;;;;4.82;1.92;;;;;;;;;;5045507;28;20018;-81
2023/05/09 12:08:05;;;;;;;4.97;1.95;;;;;;;;;;5039951;28;20025;-81
2023/05/09 12:10:32;;;;;;;3.50;2.10;;;;;;;;;;5043754;28;20048;-82
2023/05/09 12:13:00;;;;;;;4.90;1.65;;;;;;;;;;5041247;28;20040;-81
2023/05/09 12:15:26;;;;;;;4.00;1.67;;;;;;;;;;5042975;28;20024;-80
2023/05/09 12:18:06;;;;;;;3.65;1.88;;;;;;;;;;5038659;28;20099;-81
2023/05/09 12:20:44;;;;;;;6.53;2.00;;;;;;;;;;5039615;28;20128;-81
2023/05/09 12:23:13;;;;;;;3.03;1.88;;;;;;;;;;5040358;28;20056;-81
2023/05/09 12:25:39;;;;;;;2.40;1.33;;;;;;;;;;5038907;28;20418;-82
2023/05/09 12:28:05;;;;;;;2.75;1.40;;;;;;;;;;5039313;28;20036;-81
2023/05/09 12:30:31;;;;;;;2.80;1.50;;;;;;;;;;5040729;28;20621;-80
2023/05/09 12:32:57;;;;;;;5.70;1.40;;;;;;;;;;5039647;28;20095;-80
2023/05/09 12:35:24;;;;;;;2.90;1.48;;;;;;;;;;5042765;28;20503;-80
2023/05/09 12:37:57;;;;;;;4.47;1.80;;;;;;;;;;5040479;28;20032;-80
2023/05/09 12:40:24;;;;;;;3.95;1.52;;;;;;;;;;5043631;28;20017;-80
2023/05/09 12:42:53;;;;;;;3.22;1.80;;;;;;;;;;5040891;28;20487;-81
2023/05/09 12:45:19;;;;;;;3.65;1.55;;;;;;;;;;5042903;28;20025;-80
2023/05/09 12:47:45;;;;;;;4.82;1.63;;;;;;;;;;5039309;28;20040;-79
2023/05/09 12:50:12;;;;;;;3.40;1.90;;;;;;;;;;5042180;28;21640;-80
2023/05/09 12:52:39;;;;;;;2.63;1.60;;;;;;;;;;5043445;28;20028;-81
2023/05/09 12:55:12;;;;;;;2.63;1.30;;;;;;;;;;5043931;28;20104;-81
2023/05/09 12:57:40;;;;;;;3.15;1.38;;;;;;;;;;5039633;28;20107;-80
2023/05/09 13:00:09;;;;;;;3.30;1.17;;;;;;;;;;5039573;28;20381;-80
2023/05/09 13:02:41;;;;;;;3.53;1.10;;;;;;;;;;5041402;28;20041;-81
2023/05/09 13:05:09;;;;;;;1.75;1.20;;;;;;;;;;5039876;28;20040;-80
2023/05/09 13:07:42;;;;;;;6.10;1.63;;;;;;;;;;5039696;28;20018;-79
2023/05/09 13:10:11;;;;;;;3.30;1.15;;;;;;;;;;5040492;28;20357;-81
2023/05/09 13:12:37;;;;;;;2.63;1.30;;;;;;;;;;5041355;28;20035;-81
2023/05/09 13:15:04;;;;;;;2.90;1.35;;;;;;;;;;5039687;28;20124;-81
2023/05/09 13:17:30;;;;;;;3.33;1.30;;;;;;;;;;5027002;28;20036;-81
2023/05/09 13:19:56;;;;;;;2.22;1.40;;;;;;;;;;5040768;28;20049;-79
2023/05/09 13:22:22;;;;;;;3.83;1.05;;;;;;;;;;5040152;28;20056;-79
2023/05/09 13:24:48;;;;;;;2.90;1.42;;;;;;;;;;5039700;28;20033;-81
2023/05/09 13:27:14;;;;;;;2.35;1.55;;;;;;;;;;5037645;28;20049;-81
2023/05/09 13:29:42;;;;;;;3.47;1.65;;;;;;;;;;5040245;28;20036;-80
2023/05/09 13:32:08;;;;;;;3.65;1.50;;;;;;;;;;5038823;28;20029;-79
2023/05/09 13:34:34;;;;;;;1.98;1.50;;;;;;;;;;5040423;28;20036;-80
2023/05/09 13:37:00;;;;;;;3.03;1.70;;;;;;;;;;5038248;28;20528;-81
2023/05/09 13:39:28;;;;;;;3.40;1.20;;;;;;;;;;5030873;28;20033;-81
2023/05/09 13:41:54;;;;;;;4.53;1.48;;;;;;;;;;5046016;28;20025;-80
2023/05/09 13:44:22;;;;;;;1.55;1.20;;;;;;;;;;5041440;28;20052;-80
2023/05/09 13:46:48;;;;;;;3.05;1.48;;;;;;;;;;5044078;28;20400;-80
2023/05/09 13:49:14;;;;;;;3.60;1.55;;;;;;;;;;5046959;28;20054;-79
2023/05/09 13:51:40;;;;;;;4.10;1.50;;;;;;;;;;5044606;28;20030;-80
2023/05/09 13:54:11;;;;;;;6.68;1.83;;;;;;;;;;5045830;28;20025;-79
2023/05/09 13:56:38;;;;;;;1.92;1.60;;;;;;;;;;5045253;28;20033;-80
2023/05/09 13:59:04;;;;;;;5.82;1.52;;;;;;;;;;5044059;28;20385;-78
2023/05/09 14:01:29;;;;;;;2.78;1.35;;;;;;;;;;5041895;28;20038;-80
2023/05/09 14:03:55;;;;;;;1.92;1.45;;;;;;;;;;5042427;28;20024;-80
2023/05/09 14:06:21;;;;;;;1.75;1.10;;;;;;;;;;5040589;28;20029;-81
2023/05/09 14:08:47;;;;;;;2.83;1.42;;;;;;;;;;5044187;28;20018;-81
2023/05/09 14:11:13;;;;;;;7.45;3.92;;;;;;;;;;5044432;28;20097;-79
2023/05/09 14:13:39;;;;;;;9.10;6.57;;;;;;;;;;5045974;28;20034;-79
2023/05/09 14:16:06;;;;;;;11.50;8.77;;;;;;;;;;5050610;28;20068;-80
2023/05/09 14:18:31;;;;;;;12.15;9.40;;;;;;;;;;5045902;28;20018;-78
2023/05/09 14:20:57;;;;;;;12.93;9.80;;;;;;;;;;5045164;28;20048;-79
2023/05/09 14:23:26;;;;;;;15.57;8.80;;;;;;;;;;5046296;28;20048;-79
2023/05/09 14:25:52;;;;;;;10.23;8.32;;;;;;;;;;5048078;28;20065;-77
2023/05/09 14:28:18;;;;;;;14.45;11.10;;;;;;;;;;5050757;28;20032;-80